createdAt,value
2017-08-28T00:00:09.678Z,63.77
2017-08-28T00:02:41.351Z,64.05
2017-08-28T00:05:12.698Z,64.37
2017-08-28T00:07:44.016Z,64.58
2017-08-28T00:10:15.659Z,64.79
2017-08-28T00:12:47.033Z,65.06
2017-08-28T00:15:18.382Z,65.29
2017-08-28T00:17:50.051Z,65.48
2017-08-28T00:20:21.468Z,65.73
2017-08-28T00:25:35.510Z,66.07
2017-08-28T00:28:07.574Z,66.18
2017-08-28T00:30:39.378Z,66.31
2017-08-28T00:33:10.997Z,66.58
2017-08-28T00:35:42.577Z,66.57
2017-08-28T00:38:13.974Z,66.67
2017-08-28T00:40:45.365Z,66.94
2017-08-28T00:43:17.018Z,67.16
2017-08-28T00:45:48.387Z,67.10
2017-08-28T00:48:19.762Z,67.21
2017-08-28T00:50:51.407Z,67.22
2017-08-28T00:53:22.774Z,67.26
2017-08-28T00:55:54.397Z,67.40
2017-08-28T00:58:25.728Z,67.41
2017-08-28T01:00:57.124Z,67.37
2017-08-28T01:03:28.793Z,67.31
2017-08-28T01:06:00.320Z,67.30
2017-08-28T01:08:31.645Z,67.30
2017-08-28T01:11:06.021Z,67.44
2017-08-28T01:13:37.373Z,67.51
2017-08-28T01:16:08.976Z,67.76
2017-08-28T01:18:40.324Z,67.92
2017-08-28T01:21:12.031Z,68.11
2017-08-28T01:23:43.354Z,68.29
2017-08-28T01:26:14.680Z,68.39
2017-08-28T01:28:46.313Z,68.41
2017-08-28T01:31:17.676Z,68.36
2017-08-28T01:36:44.616Z,68.38
2017-08-28T01:39:15.959Z,68.28
2017-08-28T01:41:47.564Z,68.43
2017-08-28T01:44:18.872Z,68.46
2017-08-28T01:46:50.335Z,68.72
2017-08-28T01:49:21.658Z,68.88
2017-08-28T01:51:53.313Z,68.90
2017-08-28T01:54:24.644Z,69.07
2017-08-28T01:56:56.660Z,69.24
2017-08-28T01:59:28.510Z,69.21
2017-08-28T02:01:59.934Z,69.28
2017-08-28T02:04:31.265Z,69.37
2017-08-28T02:07:04.131Z,69.49
2017-08-28T02:09:35.450Z,69.66
2017-08-28T02:12:07.109Z,69.89
2017-08-28T02:14:38.730Z,69.91
2017-08-28T02:17:10.047Z,69.81
2017-08-28T02:19:41.445Z,69.63
2017-08-28T02:22:13.231Z,69.66
2017-08-28T02:24:44.615Z,69.80
2017-08-28T02:27:15.937Z,69.99
2017-08-28T02:29:47.581Z,70.25
2017-08-28T02:32:18.920Z,70.32
2017-08-28T02:34:50.240Z,70.53
2017-08-28T02:37:22.316Z,70.68
2017-08-28T02:39:53.664Z,70.73
2017-08-28T02:42:24.980Z,70.80
2017-08-28T02:44:56.636Z,70.96
2017-08-28T02:47:27.974Z,71.04
2017-08-28T02:49:59.392Z,71.16
2017-08-28T02:52:30.993Z,71.15
2017-08-28T02:55:03.964Z,71.21
2017-08-28T02:57:35.598Z,71.28
2017-08-28T03:00:07.292Z,71.29
2017-08-28T03:02:38.596Z,71.52
2017-08-28T03:05:10.213Z,71.45
2017-08-28T03:07:41.812Z,71.49
2017-08-28T03:10:13.114Z,71.58
2017-08-28T03:12:44.770Z,71.78
2017-08-28T03:15:16.074Z,71.88
2017-08-28T03:17:47.746Z,72.00
2017-08-28T03:20:19.043Z,72.09
2017-08-28T03:22:50.373Z,72.13
2017-08-28T03:25:21.975Z,72.23
2017-08-28T03:27:53.314Z,72.40
2017-08-28T03:30:24.654Z,72.46
2017-08-28T03:32:56.262Z,72.48
2017-08-28T03:35:27.628Z,72.33
2017-08-28T03:37:59.620Z,72.24
2017-08-28T03:40:30.910Z,72.21
2017-08-28T03:43:03.124Z,72.36
2017-08-28T03:45:34.807Z,72.43
2017-08-28T03:48:07.220Z,72.51
2017-08-28T03:50:38.604Z,72.67
2017-08-28T03:53:10.301Z,72.72
2017-08-28T03:55:41.703Z,72.82
2017-08-28T03:58:13.399Z,72.77
2017-08-28T04:00:45.113Z,72.86
2017-08-28T04:03:16.525Z,72.73
2017-08-28T04:05:48.167Z,72.71
2017-08-28T04:08:20.022Z,72.61
2017-08-28T04:10:51.317Z,72.41
2017-08-28T04:13:22.900Z,71.94
2017-08-28T04:15:54.202Z,71.56
2017-08-28T04:18:25.512Z,71.22
2017-08-28T04:20:56.896Z,70.92
2017-08-28T04:23:28.535Z,70.71
2017-08-28T04:25:59.860Z,70.45
2017-08-28T04:28:31.566Z,70.37
2017-08-28T04:31:04.771Z,70.34
2017-08-28T04:33:36.419Z,70.26
2017-08-28T04:36:07.751Z,70.12
2017-08-28T04:38:39.107Z,70.03
2017-08-28T04:41:11.022Z,70.02
2017-08-28T04:43:42.356Z,70.05
2017-08-28T04:46:13.997Z,69.97
2017-08-28T04:48:45.359Z,69.93
2017-08-28T04:51:17.341Z,69.70
2017-08-28T04:53:48.790Z,69.59
2017-08-28T04:56:20.140Z,69.49
2017-08-28T04:58:52.101Z,69.48
2017-08-28T05:01:23.524Z,69.35
2017-08-28T05:03:54.897Z,69.25
2017-08-28T05:06:26.241Z,69.05
2017-08-28T05:08:57.899Z,69.06
2017-08-28T05:11:29.469Z,69.05
2017-08-28T05:14:02.223Z,69.13
2017-08-28T05:16:34.003Z,69.16
2017-08-28T05:19:06.365Z,69.14
2017-08-28T05:21:37.929Z,69.01
2017-08-28T05:24:09.289Z,68.92
2017-08-28T05:26:41.050Z,68.70
2017-08-28T05:29:12.754Z,68.53
2017-08-28T05:31:44.082Z,68.37
2017-08-28T05:34:15.695Z,68.22
2017-08-28T05:36:47.094Z,67.89
2017-08-28T05:39:18.515Z,67.48
2017-08-28T05:41:50.126Z,66.79
2017-08-28T05:44:21.474Z,66.19
2017-08-28T05:46:52.804Z,66.08
2017-08-28T05:49:24.476Z,66.17
2017-08-28T05:51:55.822Z,66.12
2017-08-28T05:54:27.183Z,65.79
2017-08-28T05:56:58.828Z,65.09
2017-08-28T05:59:30.513Z,64.44
2017-08-28T06:02:03.631Z,64.04
2017-08-28T06:04:35.017Z,63.67
2017-08-28T06:07:07.301Z,63.20
2017-08-28T06:09:38.982Z,62.88
2017-08-28T06:12:10.323Z,62.62
2017-08-28T06:14:41.644Z,62.59
2017-08-28T06:17:13.286Z,62.81
2017-08-28T06:19:44.638Z,62.86
2017-08-28T06:22:16.230Z,62.60
2017-08-28T06:24:47.554Z,62.13
2017-08-28T06:27:18.903Z,61.44
2017-08-28T06:29:50.859Z,60.90
2017-08-28T06:32:22.156Z,60.39
2017-08-28T06:37:16.991Z,59.57
2017-08-28T06:39:48.365Z,59.07
2017-08-28T06:42:19.682Z,58.54
2017-08-28T06:44:51.249Z,58.14
2017-08-28T06:47:22.605Z,57.87
2017-08-28T06:49:54.244Z,57.67
2017-08-28T06:52:25.937Z,57.72
2017-08-28T06:54:57.449Z,57.32
2017-08-28T06:57:29.057Z,57.03
2017-08-28T07:00:00.617Z,56.69
2017-08-28T07:02:32.044Z,56.49
2017-08-28T07:05:05.355Z,56.41
2017-08-28T07:07:36.789Z,56.21
2017-08-28T07:10:08.763Z,55.98
2017-08-28T07:12:40.271Z,55.56
2017-08-28T07:15:11.812Z,55.72
2017-08-28T07:17:43.667Z,56.08
2017-08-28T07:20:15.145Z,56.10
2017-08-28T07:22:46.589Z,58.34
2017-08-28T07:25:18.273Z,58.22
2017-08-28T07:27:49.605Z,56.96
2017-08-28T07:30:21.562Z,55.10
2017-08-28T07:32:53.246Z,54.44
2017-08-28T07:35:24.611Z,53.35
2017-08-28T07:37:56.328Z,53.02
2017-08-28T07:40:27.763Z,52.55
2017-08-28T07:42:59.178Z,51.85
2017-08-28T07:45:30.579Z,51.31
2017-08-28T07:48:03.986Z,50.75
2017-08-28T07:50:35.707Z,50.19
2017-08-28T07:53:07.623Z,50.64
2017-08-28T07:55:39.153Z,50.60
2017-08-28T07:58:10.865Z,50.52
2017-08-28T08:00:42.263Z,50.13
2017-08-28T08:03:13.867Z,50.04
2017-08-28T08:05:45.231Z,49.78
2017-08-28T08:08:16.708Z,49.73
2017-08-28T08:10:48.598Z,49.56
2017-08-28T08:13:19.943Z,49.18
2017-08-28T08:15:51.630Z,49.25
2017-08-28T08:18:23.260Z,49.36
2017-08-28T08:20:54.773Z,48.96
2017-08-28T08:23:26.447Z,48.52
2017-08-28T08:25:57.870Z,48.32
2017-08-28T08:28:29.241Z,48.29
2017-08-28T08:31:02.800Z,48.04
2017-08-28T08:33:38.413Z,47.81
2017-08-28T08:36:09.718Z,47.97
2017-08-28T08:38:41.299Z,48.02
2017-08-28T08:41:12.724Z,47.40
2017-08-28T08:43:44.181Z,48.04
2017-08-28T08:46:15.501Z,47.56
2017-08-28T08:48:46.944Z,47.21
2017-08-28T08:51:18.612Z,48.04
2017-08-28T08:53:49.956Z,48.20
2017-08-28T08:56:21.281Z,47.51
2017-08-28T08:58:52.917Z,46.25
2017-08-28T09:01:24.312Z,45.70
2017-08-28T09:03:55.613Z,45.88
2017-08-28T09:06:26.904Z,47.02
2017-08-28T09:08:58.331Z,46.60
2017-08-28T09:11:29.935Z,45.62
2017-08-28T09:14:01.805Z,46.10
2017-08-28T09:16:33.655Z,45.61
2017-08-28T09:19:05.983Z,45.56
2017-08-28T09:21:37.285Z,45.28
2017-08-28T09:24:08.849Z,44.65
2017-08-28T09:26:40.123Z,45.42
2017-08-28T09:29:11.735Z,44.69
2017-08-28T09:31:43.075Z,44.72
2017-08-28T09:34:14.701Z,44.95
2017-08-28T09:36:46.051Z,44.35
2017-08-28T09:39:17.385Z,44.28
2017-08-28T09:41:50.139Z,43.48
2017-08-28T09:44:21.582Z,43.07
2017-08-28T09:46:52.976Z,43.21
2017-08-28T09:49:24.325Z,43.77
2017-08-28T09:51:56.069Z,42.68
2017-08-28T09:54:27.810Z,42.62
2017-08-28T09:56:59.291Z,43.00
2017-08-28T09:59:31.064Z,43.26
2017-08-28T10:02:03.872Z,42.60
2017-08-28T10:04:35.498Z,43.28
2017-08-28T10:07:07.431Z,42.93
2017-08-28T10:09:38.747Z,41.90
2017-08-28T10:12:10.366Z,42.56
2017-08-28T10:14:41.696Z,42.32
2017-08-28T10:17:13.021Z,42.24
2017-08-28T10:19:44.620Z,41.88
2017-08-28T10:22:15.959Z,42.62
2017-08-28T10:24:47.558Z,41.92
2017-08-28T10:27:17.925Z,40.63
2017-08-28T10:29:49.262Z,39.95
2017-08-28T10:32:20.932Z,40.39
2017-08-28T10:34:52.250Z,40.73
2017-08-28T10:37:23.562Z,39.27
2017-08-28T10:39:55.153Z,38.79
2017-08-28T10:42:26.668Z,38.07
2017-08-28T10:44:57.967Z,38.00
2017-08-28T10:47:29.639Z,37.26
2017-08-28T10:50:01.197Z,36.47
2017-08-28T10:52:33.000Z,36.71
2017-08-28T10:55:06.448Z,37.33
2017-08-28T10:57:37.779Z,36.46
2017-08-28T11:00:09.288Z,36.57
2017-08-28T11:02:40.932Z,37.28
2017-08-28T11:05:12.355Z,38.92
2017-08-28T11:07:43.808Z,38.88
2017-08-28T11:10:15.593Z,37.17
2017-08-28T11:12:47.009Z,37.46
2017-08-28T11:15:18.522Z,38.94
2017-08-28T11:17:50.176Z,38.94
2017-08-28T11:20:21.811Z,38.31
2017-08-28T11:22:53.403Z,34.79
2017-08-28T11:25:24.727Z,32.58
2017-08-28T11:27:56.119Z,31.04
2017-08-28T11:30:27.791Z,29.71
2017-08-28T11:32:59.104Z,29.06
2017-08-28T11:35:30.628Z,28.56
2017-08-28T11:38:04.514Z,27.93
2017-08-28T11:40:35.951Z,27.83
2017-08-28T11:43:07.707Z,27.59
2017-08-28T11:45:39.246Z,28.38
2017-08-28T11:48:10.554Z,27.97
2017-08-28T11:50:42.143Z,27.25
2017-08-28T11:53:13.545Z,25.28
2017-08-28T11:55:44.858Z,25.61
2017-08-28T11:58:16.492Z,27.36
2017-08-28T12:00:47.860Z,24.43
2017-08-28T12:03:19.166Z,20.86
2017-08-28T12:05:50.824Z,18.75
2017-08-28T12:08:22.146Z,16.95
2017-08-28T12:10:53.463Z,16.22
2017-08-28T12:13:25.032Z,15.22
2017-08-28T12:15:56.665Z,14.96
2017-08-28T12:18:28.359Z,18.75
2017-08-28T12:20:59.665Z,16.48
2017-08-28T12:23:30.976Z,14.41
2017-08-28T12:26:04.025Z,12.90
2017-08-28T12:28:35.416Z,11.93
2017-08-28T12:31:07.352Z,11.11
2017-08-28T12:33:38.946Z,12.33
2017-08-28T12:36:10.435Z,11.84
2017-08-28T12:38:41.990Z,10.76
2017-08-28T12:41:13.363Z,10.31
2017-08-28T12:43:44.724Z,10.63
2017-08-28T12:46:16.695Z,10.63
2017-08-28T12:48:48.006Z,10.14
2017-08-28T12:51:19.335Z,9.71
2017-08-28T12:53:51.929Z,9.50
2017-08-28T12:56:23.256Z,9.84
2017-08-28T12:58:54.608Z,10.08
2017-08-28T13:01:26.314Z,9.69
2017-08-28T13:03:57.603Z,9.71
2017-08-28T13:06:28.938Z,9.61
2017-08-28T13:09:00.618Z,9.36
2017-08-28T13:11:32.085Z,8.75
2017-08-28T13:14:05.072Z,8.65
2017-08-28T13:16:36.710Z,8.67
2017-08-28T13:19:08.633Z,8.72
2017-08-28T13:21:40.453Z,8.96
2017-08-28T13:24:11.744Z,8.79
2017-08-28T13:26:43.241Z,8.47
2017-08-28T13:29:14.848Z,8.53
2017-08-28T13:31:46.188Z,8.62
2017-08-28T13:34:17.536Z,8.50
2017-08-28T13:36:48.828Z,9.05
2017-08-28T13:39:20.284Z,8.78
2017-08-28T13:41:51.942Z,8.43
2017-08-28T13:44:23.324Z,8.53
2017-08-28T13:46:54.980Z,8.49
2017-08-28T13:52:28.325Z,8.45
2017-08-28T13:54:59.947Z,8.30
2017-08-28T13:57:31.279Z,8.25
2017-08-28T14:00:05.758Z,8.31
2017-08-28T14:02:37.367Z,8.56
2017-08-28T14:05:09.871Z,8.44
2017-08-28T14:07:45.238Z,8.52
2017-08-28T14:10:16.862Z,8.74
2017-08-28T14:12:48.181Z,9.03
2017-08-28T14:15:19.893Z,8.92
2017-08-28T14:17:51.187Z,9.14
2017-08-28T14:20:22.516Z,9.16
2017-08-28T14:22:55.143Z,9.45
2017-08-28T14:25:26.452Z,9.39
2017-08-28T14:27:57.773Z,9.21
2017-08-28T14:30:29.366Z,9.41
2017-08-28T14:33:00.814Z,9.38
2017-08-28T14:35:32.383Z,9.99
2017-08-28T14:38:05.973Z,10.12
2017-08-28T14:40:37.273Z,10.15
2017-08-28T14:43:09.193Z,10.75
2017-08-28T14:45:40.621Z,10.92
2017-08-28T14:48:12.201Z,12.45
2017-08-28T14:50:43.511Z,12.46
2017-08-28T14:53:15.188Z,12.45
2017-08-28T14:55:46.501Z,12.81
2017-08-28T14:58:17.873Z,12.61
2017-08-28T15:00:49.460Z,12.42
2017-08-28T15:03:20.775Z,12.34
2017-08-28T15:05:52.080Z,12.78
2017-08-28T15:08:23.369Z,12.72
2017-08-28T15:10:54.646Z,12.50
2017-08-28T15:13:26.240Z,12.81
2017-08-28T15:15:57.589Z,12.77
2017-08-28T15:18:28.898Z,13.12
2017-08-28T15:21:00.706Z,14.20
2017-08-28T15:23:32.037Z,13.94
2017-08-28T15:26:04.371Z,14.30
2017-08-28T15:28:35.709Z,14.29
2017-08-28T15:31:08.026Z,14.05
2017-08-28T15:33:39.764Z,14.48
2017-08-28T15:36:11.144Z,14.49
2017-08-28T15:38:42.513Z,15.67
2017-08-28T15:41:14.162Z,17.39
2017-08-28T15:43:45.482Z,17.12
2017-08-28T15:46:16.945Z,16.70
2017-08-28T15:48:48.267Z,16.66
2017-08-28T15:51:19.621Z,17.18
2017-08-28T15:53:51.267Z,17.55
2017-08-28T15:56:22.602Z,19.07
2017-08-28T15:58:54.033Z,19.83
2017-08-28T16:01:25.667Z,19.10
2017-08-28T16:03:57.019Z,18.13
2017-08-28T16:06:28.421Z,16.89
2017-08-28T16:09:00.000Z,16.39
2017-08-28T16:11:31.343Z,16.47
2017-08-28T16:14:04.835Z,16.43
2017-08-28T16:16:36.159Z,16.18
2017-08-28T16:19:08.336Z,16.22
2017-08-28T16:21:39.959Z,16.87
2017-08-28T16:24:11.326Z,17.03
2017-08-28T16:26:42.892Z,17.13
2017-08-28T16:29:14.192Z,17.41
2017-08-28T16:31:45.505Z,17.85
2017-08-28T16:34:18.115Z,17.69
2017-08-28T16:36:49.452Z,17.50
2017-08-28T16:39:20.769Z,17.72
2017-08-28T16:41:52.425Z,18.34
2017-08-28T16:44:23.759Z,18.20
2017-08-28T16:46:55.437Z,18.97
2017-08-28T16:49:26.746Z,19.92
2017-08-28T16:51:58.086Z,20.44
2017-08-28T16:54:29.707Z,20.31
2017-08-28T16:57:01.375Z,21.42
2017-08-28T16:59:33.114Z,21.65
2017-08-28T17:02:06.902Z,20.27
2017-08-28T17:04:38.219Z,20.57
2017-08-28T17:07:09.812Z,21.97
2017-08-28T17:09:46.370Z,24.11
2017-08-28T17:12:18.018Z,26.34
2017-08-28T17:14:49.387Z,28.87
2017-08-28T17:17:20.769Z,30.71
2017-08-28T17:19:52.366Z,32.26
2017-08-28T17:22:24.228Z,33.38
2017-08-28T17:24:55.577Z,34.15
2017-08-28T17:27:27.203Z,35.03
2017-08-28T17:29:58.888Z,35.76
2017-08-28T17:32:30.488Z,36.46
2017-08-28T17:35:02.114Z,36.76
2017-08-28T17:37:33.434Z,37.39
2017-08-28T17:40:07.397Z,37.74
2017-08-28T17:42:38.772Z,38.25
2017-08-28T17:45:10.953Z,38.75
2017-08-28T17:47:42.478Z,38.93
2017-08-28T17:50:13.865Z,39.35
2017-08-28T17:52:45.519Z,39.64
2017-08-28T17:55:16.859Z,40.02
2017-08-28T17:57:48.202Z,40.32
2017-08-28T18:00:20.234Z,40.75
2017-08-28T18:02:51.680Z,40.99
2017-08-28T18:05:23.305Z,41.43
2017-08-28T18:07:54.645Z,41.84
2017-08-28T18:10:26.012Z,42.15
2017-08-28T18:12:57.836Z,42.50
2017-08-28T18:15:29.249Z,42.81
2017-08-28T18:18:00.885Z,43.05
2017-08-28T18:20:32.998Z,43.24
2017-08-28T18:23:05.651Z,43.53
2017-08-28T18:25:39.117Z,43.84
2017-08-28T18:28:13.840Z,44.01
2017-08-28T18:30:45.992Z,44.15
2017-08-28T18:33:21.147Z,44.44
2017-08-28T18:35:52.882Z,44.45
2017-08-28T18:38:24.221Z,44.68
2017-08-28T18:40:55.617Z,44.67
2017-08-28T18:43:27.265Z,44.67
2017-08-28T18:45:58.981Z,44.82
2017-08-28T18:48:30.550Z,45.02
2017-08-28T18:51:02.853Z,44.95
2017-08-28T18:53:34.279Z,45.09
2017-08-28T18:56:08.510Z,45.21
2017-08-28T18:58:39.993Z,45.16
2017-08-28T19:01:11.738Z,45.27
2017-08-28T19:03:43.465Z,45.42
2017-08-28T19:06:14.867Z,45.68
2017-08-28T19:08:46.331Z,45.82
2017-08-28T19:11:18.012Z,45.59
2017-08-28T19:13:49.497Z,45.70
2017-08-28T19:16:20.952Z,45.66
2017-08-28T19:18:52.433Z,45.76
2017-08-28T19:21:23.770Z,45.95
2017-08-28T19:23:55.415Z,46.11
2017-08-28T19:26:26.727Z,46.23
2017-08-28T19:28:58.105Z,46.55
2017-08-28T19:31:30.124Z,46.86
2017-08-28T19:34:39.201Z,46.85
2017-08-28T19:37:11.040Z,47.02
2017-08-28T19:39:42.451Z,46.83
2017-08-28T19:42:13.790Z,47.11
2017-08-28T19:44:45.423Z,47.32
2017-08-28T19:47:16.779Z,47.37
2017-08-28T19:49:48.362Z,47.85
2017-08-28T19:52:21.072Z,47.74
2017-08-28T19:54:52.415Z,48.25
2017-08-28T19:57:24.035Z,47.84
2017-08-28T19:59:55.381Z,47.94
2017-08-28T20:02:31.096Z,48.21
2017-08-28T20:05:03.824Z,47.79
2017-08-28T20:07:35.434Z,47.90
2017-08-28T20:10:08.111Z,48.17
2017-08-28T20:12:39.954Z,48.38
2017-08-28T20:15:11.416Z,48.62
2017-08-28T20:17:42.757Z,48.35
2017-08-28T20:20:14.443Z,48.45
2017-08-28T20:22:45.780Z,48.52
2017-08-28T20:25:17.159Z,47.74
2017-08-28T20:27:48.944Z,47.94
2017-08-28T20:30:20.299Z,47.82
2017-08-28T20:32:52.179Z,48.06
2017-08-28T20:35:23.836Z,48.20
2017-08-28T20:37:55.232Z,48.03
2017-08-28T20:40:27.231Z,47.92
2017-08-28T20:42:58.709Z,48.02
2017-08-28T20:45:30.070Z,47.75
2017-08-28T20:48:02.642Z,47.50
2017-08-28T20:50:34.162Z,47.36
2017-08-28T20:53:06.482Z,47.79
2017-08-28T20:55:38.196Z,47.94
2017-08-28T20:58:10.521Z,47.83
2017-08-28T21:00:41.859Z,49.04
2017-08-28T21:03:13.854Z,47.89
2017-08-28T21:05:45.141Z,47.78
2017-08-28T21:08:16.631Z,47.85
2017-08-28T21:10:51.596Z,48.19
2017-08-28T21:13:26.609Z,48.32
2017-08-28T21:15:59.341Z,48.54
2017-08-28T21:18:30.813Z,48.70
2017-08-28T21:21:02.621Z,49.25
2017-08-28T21:23:34.078Z,49.56
2017-08-28T21:26:07.705Z,49.58
2017-08-28T21:28:39.417Z,49.64
2017-08-28T21:31:10.849Z,48.92
2017-08-28T21:33:42.937Z,48.75
2017-08-28T21:36:14.384Z,48.88
2017-08-28T21:38:45.728Z,49.15
2017-08-28T21:41:17.430Z,49.09
2017-08-28T21:43:48.862Z,49.28
2017-08-28T21:46:20.317Z,49.48
2017-08-28T21:48:52.093Z,49.82
2017-08-28T21:51:23.441Z,49.96
2017-08-28T21:53:55.114Z,50.24
2017-08-28T21:56:26.676Z,50.60
2017-08-28T21:58:58.041Z,50.76
2017-08-28T22:01:29.701Z,51.02
2017-08-28T22:04:02.616Z,51.24
2017-08-28T22:06:34.267Z,51.47
2017-08-28T22:09:07.286Z,51.66
2017-08-28T22:11:42.160Z,51.65
2017-08-28T22:14:13.700Z,51.66
2017-08-28T22:16:45.371Z,51.78
2017-08-28T22:19:16.728Z,52.03
2017-08-28T22:21:49.167Z,52.26
2017-08-28T22:24:20.625Z,52.38
2017-08-28T22:26:52.055Z,52.47
2017-08-28T22:29:24.547Z,52.48
2017-08-28T22:31:57.811Z,52.62
2017-08-28T22:34:31.785Z,52.84
2017-08-28T22:37:06.279Z,52.92
2017-08-28T22:39:38.081Z,52.94
2017-08-28T22:42:11.761Z,52.99
2017-08-28T22:44:43.173Z,53.14
2017-08-28T22:47:14.509Z,53.51
2017-08-28T22:49:45.932Z,53.63
2017-08-28T22:52:17.437Z,53.77
2017-08-28T22:54:49.113Z,53.78
2017-08-28T22:57:20.720Z,53.80
2017-08-28T22:59:52.297Z,54.03
2017-08-28T23:02:24.128Z,54.22
2017-08-28T23:04:55.886Z,54.53
2017-08-28T23:07:27.270Z,54.75
2017-08-28T23:09:58.621Z,54.71
2017-08-28T23:12:30.169Z,54.82
2017-08-28T23:15:02.169Z,54.95
2017-08-28T23:17:33.666Z,55.00
2017-08-28T23:20:07.321Z,54.92
2017-08-28T23:22:39.985Z,55.01
2017-08-28T23:25:11.454Z,55.16
2017-08-28T23:27:43.071Z,55.28
2017-08-28T23:30:14.455Z,55.42
2017-08-28T23:32:45.773Z,55.62
2017-08-28T23:35:17.810Z,55.70
2017-08-28T23:37:49.217Z,55.77
2017-08-28T23:40:20.876Z,55.77
2017-08-28T23:42:52.498Z,56.09
2017-08-28T23:45:24.420Z,56.35
2017-08-28T23:47:56.047Z,56.69
2017-08-28T23:50:27.695Z,57.54
2017-08-28T23:52:59.027Z,57.97
2017-08-28T23:55:30.653Z,58.02
2017-08-28T23:58:03.820Z,58.16
